Time;durP1;ratioP1;P1;durP2;ratioP2;P2;SDS_P1;SDS_P2;PMS_P1;PMS_P2;Temp;Humidity;BMP_temperature;BMP_pressure;BME280_temperature;BME280_humidity;BME280_pressure;Samples;Min_cycle;Max_cycle;Signal;HPM_P1;HPM_P2
2023/01/03 00:01:31;;;;;;;12.65;3.63;;;;;;;;;;6207683;23;20013;-92
2023/01/03 00:03:58;;;;;;;17.05;3.78;;;;;;;;;;6208378;23;20205;-92
2023/01/03 00:06:29;;;;;;;9.95;3.13;;;;;;;;;;6211135;23;20437;-92
2023/01/03 00:08:56;;;;;;;7.47;2.53;;;;;;;;;;6209514;23;20012;-92
2023/01/03 00:14:10;;;;;;;7.97;2.67;;;;;;;;;;6146711;23;20047;-92
2023/01/03 00:16:37;;;;;;;10.55;3.78;;;;;;;;;;6157236;23;20271;-92
2023/01/03 00:19:10;;;;;;;13.43;4.30;;;;;;;;;;6208001;22;20015;-92
2023/01/03 00:21:36;;;;;;;7.28;2.92;;;;;;;;;;6181629;23;20017;-92
2023/01/03 00:24:02;;;;;;;11.63;3.05;;;;;;;;;;6156755;23;20013;-91
2023/01/03 00:26:28;;;;;;;8.77;2.60;;;;;;;;;;6182353;23;20016;-91
2023/01/03 00:28:54;;;;;;;7.47;2.40;;;;;;;;;;6208559;23;20012;-92
2023/01/03 00:31:21;;;;;;;14.35;3.05;;;;;;;;;;6157431;23;20091;-89
2023/01/03 00:33:47;;;;;;;6.90;2.33;;;;;;;;;;6157816;23;20465;-92
2023/01/03 00:36:13;;;;;;;17.50;3.13;;;;;;;;;;6160042;23;20009;-92
2023/01/03 00:38:39;;;;;;;7.97;2.40;;;;;;;;;;6208497;23;20000;-92
2023/01/03 00:41:06;;;;;;;7.22;2.38;;;;;;;;;;6182406;23;20015;-92
2023/01/03 00:43:32;;;;;;;9.30;2.58;;;;;;;;;;6181243;23;20009;-92
2023/01/03 00:45:58;;;;;;;15.80;2.53;;;;;;;;;;6157485;23;20078;-91
2023/01/03 00:48:24;;;;;;;10.57;2.85;;;;;;;;;;6157201;23;20013;-91
2023/01/03 00:50:50;;;;;;;13.05;2.25;;;;;;;;;;6182040;23;20523;-92
2023/01/03 00:53:16;;;;;;;7.32;1.88;;;;;;;;;;6155670;23;20036;-92
2023/01/03 00:55:42;;;;;;;8.18;2.42;;;;;;;;;;6157523;23;20040;-91
2023/01/03 00:58:08;;;;;;;7.80;1.98;;;;;;;;;;6181418;23;20009;-91
2023/01/03 01:00:34;;;;;;;8.50;2.33;;;;;;;;;;6182208;23;20051;-92
2023/01/03 01:03:00;;;;;;;7.97;2.25;;;;;;;;;;6157055;23;20019;-92
2023/01/03 01:05:28;;;;;;;3.55;1.98;;;;;;;;;;6157491;23;20014;-91
2023/01/03 01:07:54;;;;;;;13.02;2.38;;;;;;;;;;6180773;23;20004;-93
2023/01/03 01:10:20;;;;;;;6.32;2.08;;;;;;;;;;6182150;23;20112;-93
2023/01/03 01:12:46;;;;;;;5.70;1.85;;;;;;;;;;6181563;23;20036;-92
2023/01/03 01:15:12;;;;;;;3.03;1.73;;;;;;;;;;6157576;23;20008;-92
2023/01/03 01:17:39;;;;;;;8.27;1.90;;;;;;;;;;6159021;23;20491;-92
2023/01/03 01:20:05;;;;;;;10.18;2.42;;;;;;;;;;6160647;23;20029;-91
2023/01/03 01:22:35;;;;;;;5.18;2.13;;;;;;;;;;6206823;23;20012;-91
2023/01/03 01:25:02;;;;;;;5.63;2.13;;;;;;;;;;6208956;23;20715;-92
2023/01/03 01:27:28;;;;;;;9.30;2.33;;;;;;;;;;6208415;23;20707;-91
2023/01/03 01:29:54;;;;;;;15.50;1.88;;;;;;;;;;6159596;23;20032;-92
2023/01/03 01:32:20;;;;;;;4.10;2.05;;;;;;;;;;6159057;23;20384;-92
2023/01/03 01:34:46;;;;;;;9.55;3.17;;;;;;;;;;6159596;23;20329;-91
2023/01/03 01:37:12;;;;;;;9.27;2.20;;;;;;;;;;6156446;23;20404;-92
2023/01/03 01:39:38;;;;;;;12.40;2.10;;;;;;;;;;6156872;23;20479;-91
2023/01/03 01:44:53;;;;;;;6.80;1.80;;;;;;;;;;6207106;23;20046;-92
2023/01/03 01:47:28;;;;;;;8.88;2.03;;;;;;;;;;6205379;23;20008;-91
2023/01/03 01:50:14;;;;;;;8.63;1.48;;;;;;;;;;6204785;23;20448;-91
2023/01/03 01:52:40;;;;;;;;;;;;;;;;;;6179683;23;20005;-92
2023/01/03 01:55:11;;;;;;;5.57;2.00;;;;;;;;;;6180343;23;20280;-92
2023/01/03 01:57:38;;;;;;;15.18;2.00;;;;;;;;;;6204104;23;20564;-92
2023/01/03 02:00:05;;;;;;;6.18;2.30;;;;;;;;;;6158482;23;20018;-91
2023/01/03 02:02:31;;;;;;;9.75;2.22;;;;;;;;;;6208230;23;20015;-92
2023/01/03 02:04:57;;;;;;;4.47;1.65;;;;;;;;;;6209123;23;20051;-92
2023/01/03 02:07:23;;;;;;;14.35;2.67;;;;;;;;;;6158437;23;20023;-92
2023/01/03 02:09:52;;;;;;;8.18;2.00;;;;;;;;;;6158296;23;20437;-91
2023/01/03 02:15:06;;;;;;;9.75;3.10;;;;;;;;;;6210231;23;20436;-91
2023/01/03 02:17:40;;;;;;;7.55;2.47;;;;;;;;;;6208399;23;20421;-92
2023/01/03 02:20:12;;;;;;;8.45;2.40;;;;;;;;;;6209973;22;20024;-92
2023/01/03 02:22:44;;;;;;;8.40;2.30;;;;;;;;;;6180154;23;20004;-90
2023/01/03 02:25:29;;;;;;;9.20;2.42;;;;;;;;;;6183960;23;20008;-91
2023/01/03 02:28:01;;;;;;;5.88;2.40;;;;;;;;;;6183949;23;20009;-92
2023/01/03 02:30:31;;;;;;;5.68;2.40;;;;;;;;;;6183874;23;20385;-92
2023/01/03 02:33:16;;;;;;;8.35;2.75;;;;;;;;;;6183908;23;20016;-92
2023/01/03 02:36:05;;;;;;;12.20;2.88;;;;;;;;;;6184262;23;20100;-92
2023/01/03 02:38:34;;;;;;;12.45;2.65;;;;;;;;;;6183491;23;20005;-91
2023/01/03 02:41:05;;;;;;;13.30;2.88;;;;;;;;;;6185102;23;20020;-91
2023/01/03 02:43:45;;;;;;;9.73;2.65;;;;;;;;;;6182883;23;20471;-91
2023/01/03 02:46:26;;;;;;;4.15;2.47;;;;;;;;;;6183888;23;20019;-91
2023/01/03 02:48:58;;;;;;;15.63;2.83;;;;;;;;;;6184635;23;20012;-92
2023/01/03 02:51:37;;;;;;;13.13;2.83;;;;;;;;;;6184748;23;20043;-90
2023/01/03 02:54:04;;;;;;;12.40;2.53;;;;;;;;;;6184119;23;20004;-92
2023/01/03 02:56:34;;;;;;;6.18;2.28;;;;;;;;;;6212829;23;20000;-91
2023/01/03 02:59:02;;;;;;;11.13;3.70;;;;;;;;;;6211843;23;20015;-90
2023/01/03 03:01:30;;;;;;;5.20;2.33;;;;;;;;;;6185949;23;20009;-92
2023/01/03 03:03:57;;;;;;;11.35;3.00;;;;;;;;;;6185725;23;20043;-91
2023/01/03 03:06:34;;;;;;;9.73;3.15;;;;;;;;;;6186646;23;20020;-90
2023/01/03 03:09:00;;;;;;;11.18;2.42;;;;;;;;;;6185535;23;20009;-92
2023/01/03 03:14:18;;;;;;;14.25;2.88;;;;;;;;;;6213186;23;20201;-92
2023/01/03 03:16:49;;;;;;;11.95;3.22;;;;;;;;;;6186267;23;20032;-91
2023/01/03 03:25:21;;;;;;;11.15;3.40;;;;;;;;;;6213105;23;20120;-90
2023/01/03 03:30:35;;;;;;;6.67;2.63;;;;;;;;;;6213443;23;20074;-91
2023/01/03 03:33:05;;;;;;;10.77;2.38;;;;;;;;;;6186393;23;20275;-91
2023/01/03 03:35:32;;;;;;;15.57;2.50;;;;;;;;;;6212795;23;20005;-91
2023/01/03 03:37:59;;;;;;;13.05;2.88;;;;;;;;;;6185728;23;20091;-92
2023/01/03 03:46:12;;;;;;;11.02;3.08;;;;;;;;;;6213040;23;20023;-93
2023/01/03 03:51:30;;;;;;;10.93;3.08;;;;;;;;;;6211790;23;20019;-92
2023/01/03 03:54:01;;;;;;;10.07;2.85;;;;;;;;;;6185427;23;20007;-92
2023/01/03 03:56:35;;;;;;;11.10;2.70;;;;;;;;;;6186776;23;20393;-91
2023/01/03 03:59:06;;;;;;;8.52;2.78;;;;;;;;;;6186761;23;20016;-92
2023/01/03 04:01:33;;;;;;;8.63;3.03;;;;;;;;;;6184770;23;20032;-91
2023/01/03 04:04:01;;;;;;;5.72;2.85;;;;;;;;;;6186338;23;20019;-92
2023/01/03 04:06:33;;;;;;;5.95;2.72;;;;;;;;;;6186686;23;20020;-90
2023/01/03 04:08:59;;;;;;;10.23;2.97;;;;;;;;;;6186036;23;20004;-92
2023/01/03 04:11:32;;;;;;;9.88;2.85;;;;;;;;;;6161669;23;20012;-91
2023/01/03 04:13:58;;;;;;;17.98;3.88;;;;;;;;;;6188908;23;20441;-91
2023/01/03 04:16:24;;;;;;;15.32;2.78;;;;;;;;;;6161975;23;20081;-91
2023/01/03 04:18:50;;;;;;;16.40;3.70;;;;;;;;;;6162611;23;20040;-92
2023/01/03 04:21:16;;;;;;;13.57;3.40;;;;;;;;;;6162332;23;20032;-91
2023/01/03 04:23:42;;;;;;;11.55;3.40;;;;;;;;;;6211192;23;20358;-92
2023/01/03 04:26:08;;;;;;;9.30;3.47;;;;;;;;;;6161625;23;20023;-91
2023/01/03 04:28:34;;;;;;;15.60;3.60;;;;;;;;;;6187816;23;20009;-92
2023/01/03 04:31:00;;;;;;;8.20;3.60;;;;;;;;;;6161066;23;20095;-90
2023/01/03 04:33:26;;;;;;;16.77;4.32;;;;;;;;;;6162605;23;20092;-91
2023/01/03 04:35:52;;;;;;;8.52;3.25;;;;;;;;;;6211717;23;20035;-92
2023/01/03 04:38:18;;;;;;;11.80;3.85;;;;;;;;;;6210910;23;20013;-92
2023/01/03 04:40:44;;;;;;;19.27;4.00;;;;;;;;;;6212429;23;20005;-91
2023/01/03 04:45:55;;;;;;;15.05;3.80;;;;;;;;;;6214255;23;20091;-92
2023/01/03 04:48:21;;;;;;;16.10;4.72;;;;;;;;;;6161524;23;20016;-93
2023/01/03 04:50:54;;;;;;;16.13;3.90;;;;;;;;;;6212268;23;20001;-92
2023/01/03 04:53:20;;;;;;;13.40;4.30;;;;;;;;;;6211254;23;20083;-91
2023/01/03 04:55:47;;;;;;;12.27;4.70;;;;;;;;;;6211329;23;20012;-92
2023/01/03 04:58:13;;;;;;;18.48;4.72;;;;;;;;;;6209771;23;20007;-91
2023/01/03 05:00:39;;;;;;;20.42;5.20;;;;;;;;;;6161351;23;20387;-92
2023/01/03 05:03:05;;;;;;;18.50;5.15;;;;;;;;;;6161129;23;20032;-92
2023/01/03 05:05:31;;;;;;;10.90;4.65;;;;;;;;;;6160720;23;20450;-92
2023/01/03 05:07:57;;;;;;;20.35;5.22;;;;;;;;;;6159618;23;20013;-92
2023/01/03 05:10:23;;;;;;;14.95;5.45;;;;;;;;;;6161425;23;20016;-92
2023/01/03 05:12:58;;;;;;;24.08;6.63;;;;;;;;;;6160280;23;20019;-92
2023/01/03 05:15:31;;;;;;;18.63;7.18;;;;;;;;;;6162912;23;20095;-91
2023/01/03 05:17:57;;;;;;;23.70;5.95;;;;;;;;;;6212432;23;20066;-92
2023/01/03 05:25:57;;;;;;;17.00;6.28;;;;;;;;;;6212481;23;20051;-91
2023/01/03 05:28:23;;;;;;;15.20;7.20;;;;;;;;;;6210386;23;20039;-91
2023/01/03 05:30:49;;;;;;;25.67;6.93;;;;;;;;;;6211462;23;20493;-92
2023/01/03 05:33:15;;;;;;;26.50;7.35;;;;;;;;;;6160589;23;20013;-93
2023/01/03 05:35:45;;;;;;;15.20;7.35;;;;;;;;;;6160861;23;20088;-91
2023/01/03 05:38:13;;;;;;;22.45;7.07;;;;;;;;;;6209928;23;20032;-91
2023/01/03 05:40:39;;;;;;;22.48;7.65;;;;;;;;;;6161710;23;20004;-91
2023/01/03 05:43:05;;;;;;;17.00;7.43;;;;;;;;;;6168559;23;20024;-91
2023/01/03 05:45:31;;;;;;;23.00;8.05;;;;;;;;;;6160418;23;20019;-92
2023/01/03 05:47:57;;;;;;;22.83;8.32;;;;;;;;;;6160769;23;20441;-91
2023/01/03 05:50:24;;;;;;;18.60;8.77;;;;;;;;;;6160088;23;20405;-91
2023/01/03 05:52:50;;;;;;;19.80;6.55;;;;;;;;;;6160018;23;20691;-92
2023/01/03 05:55:16;;;;;;;25.75;7.20;;;;;;;;;;6160897;23;20017;-91
2023/01/03 05:57:42;;;;;;;13.30;6.13;;;;;;;;;;6158585;23;20008;-92
2023/01/03 06:00:09;;;;;;;16.45;7.72;;;;;;;;;;6210415;23;20350;-92
2023/01/03 06:02:35;;;;;;;19.23;7.82;;;;;;;;;;6210975;23;20095;-92
2023/01/03 06:05:01;;;;;;;24.45;7.82;;;;;;;;;;6162172;23;20365;-91
2023/01/03 06:07:28;;;;;;;23.05;9.05;;;;;;;;;;6210579;23;20450;-90
2023/01/03 06:09:54;;;;;;;25.25;9.40;;;;;;;;;;6210386;23;20005;-92
2023/01/03 06:12:20;;;;;;;23.27;8.98;;;;;;;;;;6185826;23;20005;-91
2023/01/03 06:14:46;;;;;;;28.02;8.50;;;;;;;;;;6162071;23;20016;-91
2023/01/03 06:19:57;;;;;;;14.98;7.50;;;;;;;;;;6191273;22;20035;-92
2023/01/03 06:22:23;;;;;;;26.77;9.32;;;;;;;;;;6185313;23;20091;-92
2023/01/03 06:24:49;;;;;;;23.33;9.27;;;;;;;;;;6161037;23;20020;-91
2023/01/03 06:27:15;;;;;;;21.05;8.13;;;;;;;;;;6185594;23;20005;-92
2023/01/03 06:29:41;;;;;;;24.33;9.45;;;;;;;;;;6160266;23;20012;-91
2023/01/03 06:32:07;;;;;;;25.75;9.63;;;;;;;;;;6161879;23;20012;-92
2023/01/03 06:34:33;;;;;;;28.90;9.95;;;;;;;;;;6161949;23;20051;-92
2023/01/03 06:36:59;;;;;;;25.58;10.20;;;;;;;;;;6185959;23;19997;-91
2023/01/03 06:39:25;;;;;;;33.58;10.73;;;;;;;;;;6161944;23;20009;-91
2023/01/03 06:41:51;;;;;;;35.17;10.13;;;;;;;;;;6162786;23;20012;-91
2023/01/03 06:44:17;;;;;;;29.42;10.95;;;;;;;;;;6161132;23;20027;-91
2023/01/03 06:53:11;;;;;;;35.38;12.38;;;;;;;;;;6191276;23;20028;-92
2023/01/03 06:55:16;;;;;;;35.92;11.70;;;;;;;;;;6191575;23;20069;-92
2023/01/03 06:57:42;;;;;;;29.42;11.05;;;;;;;;;;6185038;23;20007;-90
2023/01/03 07:00:09;;;;;;;35.70;12.35;;;;;;;;;;6186834;23;20322;-92
2023/01/03 07:02:35;;;;;;;29.13;11.98;;;;;;;;;;6186526;23;20337;-91
2023/01/03 07:05:01;;;;;;;36.88;12.65;;;;;;;;;;6186510;23;20019;-92
2023/01/03 07:07:27;;;;;;;29.38;11.23;;;;;;;;;;6186309;23;20016;-91
2023/01/03 07:09:53;;;;;;;31.23;12.30;;;;;;;;;;6162848;23;20008;-91
2023/01/03 07:15:04;;;;;;;41.53;13.18;;;;;;;;;;6212733;23;20100;-89
2023/01/03 07:17:30;;;;;;;34.00;12.75;;;;;;;;;;6212333;23;20076;-92
2023/01/03 07:19:56;;;;;;;33.38;12.85;;;;;;;;;;6187935;23;20020;-92
2023/01/03 07:22:22;;;;;;;31.70;12.95;;;;;;;;;;6161143;23;20024;-92
2023/01/03 07:24:48;;;;;;;38.28;13.48;;;;;;;;;;6161523;23;20016;-89
2023/01/03 07:27:14;;;;;;;38.25;13.82;;;;;;;;;;6160815;23;20013;-91
2023/01/03 07:29:40;;;;;;;33.95;14.15;;;;;;;;;;6161133;23;20104;-92
2023/01/03 07:32:06;;;;;;;45.92;14.40;;;;;;;;;;6161787;23;20040;-91
2023/01/03 07:34:32;;;;;;;39.40;13.65;;;;;;;;;;6161633;23;20027;-91
2023/01/03 07:36:58;;;;;;;51.45;13.10;;;;;;;;;;6185792;23;20803;-90
2023/01/03 07:39:24;;;;;;;43.58;14.30;;;;;;;;;;6161450;23;20023;-90
2023/01/03 07:44:35;;;;;;;46.55;13.90;;;;;;;;;;6200560;23;20207;-91
2023/01/03 07:47:01;;;;;;;43.35;13.73;;;;;;;;;;6186826;23;20345;-91
2023/01/03 07:49:27;;;;;;;36.28;14.63;;;;;;;;;;6186591;23;20558;-91
2023/01/03 07:51:53;;;;;;;31.33;14.02;;;;;;;;;;6160960;23;20001;-91
2023/01/03 07:54:19;;;;;;;40.47;15.02;;;;;;;;;;6186723;23;20035;-90
2023/01/03 07:56:45;;;;;;;32.92;12.73;;;;;;;;;;6160882;23;20023;-91
2023/01/03 07:59:11;;;;;;;35.75;13.90;;;;;;;;;;6161169;23;20005;-91
2023/01/03 08:01:46;;;;;;;26.10;11.52;;;;;;;;;;6169877;23;20008;-91
2023/01/03 08:04:12;;;;;;;35.90;13.13;;;;;;;;;;6223197;23;20441;-90
2023/01/03 08:06:59;;;;;;;37.30;14.20;;;;;;;;;;6172279;23;20016;-90
2023/01/03 08:14:57;;;;;;;28.55;12.20;;;;;;;;;;6191004;23;20031;-92
2023/01/03 08:17:29;;;;;;;41.75;12.63;;;;;;;;;;6163551;23;20741;-92
2023/01/03 08:19:57;;;;;;;60.30;14.52;;;;;;;;;;6200820;22;20023;-91
2023/01/03 08:22:23;;;;;;;36.33;12.88;;;;;;;;;;6159089;23;20456;-91
2023/01/03 08:24:49;;;;;;;32.88;13.02;;;;;;;;;;6160746;23;20525;-91
2023/01/03 08:27:26;;;;;;;40.38;12.48;;;;;;;;;;6176152;23;20047;-90
2023/01/03 08:29:53;;;;;;;26.50;10.13;;;;;;;;;;6217848;23;20012;-91
2023/01/03 08:32:19;;;;;;;25.58;8.82;;;;;;;;;;6185892;23;20012;-92
2023/01/03 08:34:47;;;;;;;22.35;9.07;;;;;;;;;;6160872;23;20094;-91
2023/01/03 08:37:14;;;;;;;20.95;10.00;;;;;;;;;;6161531;23;20005;-91
2023/01/03 08:39:45;;;;;;;26.35;10.95;;;;;;;;;;6187282;23;20036;-91
2023/01/03 08:42:15;;;;;;;26.33;10.73;;;;;;;;;;6192536;23;20008;-91
2023/01/03 08:44:44;;;;;;;25.42;9.65;;;;;;;;;;6228258;23;20064;-91
2023/01/03 08:47:11;;;;;;;26.63;10.90;;;;;;;;;;6214616;23;20016;-91
2023/01/03 08:49:38;;;;;;;24.23;10.15;;;;;;;;;;6163619;23;20091;-92
2023/01/03 08:52:04;;;;;;;30.08;11.80;;;;;;;;;;6213139;23;20000;-92
2023/01/03 08:54:31;;;;;;;36.60;13.05;;;;;;;;;;6186423;23;20015;-92
2023/01/03 08:56:57;;;;;;;30.25;12.07;;;;;;;;;;6161798;23;20091;-92
2023/01/03 08:59:23;;;;;;;30.35;12.98;;;;;;;;;;6160073;23;20012;-91
2023/01/03 09:01:49;;;;;;;31.15;13.80;;;;;;;;;;6160739;23;20009;-92
2023/01/03 09:04:15;;;;;;;37.25;14.13;;;;;;;;;;6160631;23;20417;-91
2023/01/03 09:06:44;;;;;;;38.00;14.18;;;;;;;;;;6161722;23;20048;-94
2023/01/03 09:09:10;;;;;;;29.17;9.43;;;;;;;;;;6185418;23;20044;-90
2023/01/03 09:11:36;;;;;;;37.10;13.20;;;;;;;;;;6161174;23;20020;-92
2023/01/03 09:14:02;;;;;;;26.50;12.73;;;;;;;;;;6160527;23;20008;-90
2023/01/03 09:16:28;;;;;;;36.97;14.60;;;;;;;;;;6185793;23;20456;-91
2023/01/03 09:18:54;;;;;;;32.63;14.18;;;;;;;;;;6160054;23;20012;-91
2023/01/03 09:21:27;;;;;;;36.70;15.38;;;;;;;;;;6185903;22;20024;-91
2023/01/03 09:23:53;;;;;;;34.97;13.38;;;;;;;;;;6212576;23;20019;-91
2023/01/03 09:26:20;;;;;;;37.00;16.58;;;;;;;;;;6220505;23;20008;-92
2023/01/03 09:28:47;;;;;;;35.42;14.82;;;;;;;;;;6159881;23;20099;-90
2023/01/03 09:31:13;;;;;;;31.10;15.05;;;;;;;;;;6159467;23;20009;-91
2023/01/03 09:33:39;;;;;;;33.92;17.15;;;;;;;;;;6184860;23;20005;-91
2023/01/03 09:36:05;;;;;;;28.23;13.27;;;;;;;;;;6159847;23;20012;-91
2023/01/03 09:38:31;;;;;;;23.23;9.90;;;;;;;;;;6160993;23;20019;-91
2023/01/03 09:40:59;;;;;;;38.63;14.48;;;;;;;;;;6161210;23;20433;-90
2023/01/03 09:43:28;;;;;;;27.15;12.25;;;;;;;;;;6184961;23;20004;-91
2023/01/03 09:45:57;;;;;;;24.33;11.23;;;;;;;;;;6210841;23;20007;-91
2023/01/03 09:48:43;;;;;;;21.25;9.23;;;;;;;;;;6212184;23;20031;-91
2023/01/03 10:03:42;;;;;;;;;;;;;;;;;;6185128;23;20012;-90
2023/01/03 10:05:37;;;;;;;30.27;10.73;;;;;;;;;;6216007;23;20068;-90
2023/01/03 10:08:04;;;;;;;24.45;8.68;;;;;;;;;;6207384;23;20009;-91
2023/01/03 10:10:35;;;;;;;29.55;10.32;;;;;;;;;;6210841;23;20217;-91
2023/01/03 10:13:20;;;;;;;32.10;9.35;;;;;;;;;;6184934;23;20412;-91
2023/01/03 10:16:01;;;;;;;22.77;10.32;;;;;;;;;;6213707;23;20340;-91
2023/01/03 10:18:35;;;;;;;22.40;9.73;;;;;;;;;;6219793;23;20004;-91
2023/01/03 10:21:04;;;;;;;29.33;8.95;;;;;;;;;;6211339;22;20027;-91
2023/01/03 10:23:31;;;;;;;24.35;10.70;;;;;;;;;;6211419;23;20634;-91
2023/01/03 10:25:57;;;;;;;23.25;9.07;;;;;;;;;;6185042;23;20060;-91
2023/01/03 10:28:43;;;;;;;36.08;10.45;;;;;;;;;;6185593;23;20027;-91
2023/01/03 10:31:09;;;;;;;;;;;;;;;;;;6185454;23;20584;-91
2023/01/03 10:33:40;;;;;;;14.98;6.25;;;;;;;;;;6185713;23;19922;-91
2023/01/03 10:36:07;;;;;;;39.70;11.02;;;;;;;;;;6184407;23;20047;-91
2023/01/03 10:39:02;;;;;;;44.55;12.43;;;;;;;;;;6212363;23;19997;-91
2023/01/03 10:41:47;;;;;;;44.47;12.60;;;;;;;;;;6192815;23;20009;-91
2023/01/03 10:44:30;;;;;;;37.30;11.13;;;;;;;;;;6187553;23;20012;-91
2023/01/03 10:46:58;;;;;;;52.38;12.30;;;;;;;;;;6187172;23;20012;-91
2023/01/03 10:50:17;;;;;;;53.90;11.23;;;;;;;;;;6186073;23;20040;-91
2023/01/03 10:52:43;;;;;;;49.28;12.00;;;;;;;;;;6175778;23;20013;-91
2023/01/03 10:55:14;;;;;;;62.67;13.98;;;;;;;;;;6161993;23;20357;-92
2023/01/03 10:57:42;;;;;;;45.22;13.77;;;;;;;;;;6184754;23;20013;-91
2023/01/03 11:00:26;;;;;;;51.42;13.85;;;;;;;;;;6186470;23;20016;-92
2023/01/03 11:02:53;;;;;;;48.47;14.70;;;;;;;;;;6184772;23;20641;-92
2023/01/03 11:05:26;;;;;;;33.08;14.35;;;;;;;;;;6193152;23;20008;-91
2023/01/03 11:07:56;;;;;;;55.20;15.10;;;;;;;;;;6184618;23;20004;-92
2023/01/03 11:10:30;;;;;;;39.92;16.42;;;;;;;;;;6218201;23;20445;-92
2023/01/03 11:12:58;;;;;;;44.92;16.35;;;;;;;;;;6181447;23;20094;-91
2023/01/03 11:15:30;;;;;;;42.28;15.90;;;;;;;;;;6190341;23;20009;-92
2023/01/03 11:17:57;;;;;;;47.33;17.55;;;;;;;;;;6213105;23;20004;-92
2023/01/03 11:20:33;;;;;;;51.10;17.33;;;;;;;;;;6188196;22;20020;-92
2023/01/03 11:23:03;;;;;;;41.30;17.77;;;;;;;;;;6186921;23;20511;-92
2023/01/03 11:29:02;;;;;;;58.17;18.08;;;;;;;;;;6189066;23;20636;-92
2023/01/03 11:31:34;;;;;;;49.72;20.70;;;;;;;;;;6213770;23;20437;-92
2023/01/03 11:34:24;;;;;;;46.85;19.17;;;;;;;;;;6187339;23;20615;-92
2023/01/03 11:36:56;;;;;;;51.22;18.88;;;;;;;;;;6187059;23;20433;-92
2023/01/03 11:39:48;;;;;;;56.13;20.15;;;;;;;;;;6187488;23;20005;-91
2023/01/03 11:42:33;;;;;;;62.85;21.52;;;;;;;;;;6184359;23;20020;-92
2023/01/03 11:45:22;;;;;;;53.42;20.25;;;;;;;;;;6217127;23;20013;-92
2023/01/03 11:48:07;;;;;;;54.83;22.10;;;;;;;;;;6188374;23;20009;-92
2023/01/03 11:51:35;;;;;;;63.30;22.08;;;;;;;;;;6187263;23;20492;-91
2023/01/03 11:53:54;;;;;;;60.88;22.80;;;;;;;;;;6202307;23;20005;-92
2023/01/03 11:56:35;;;;;;;51.97;18.55;;;;;;;;;;6214211;23;20005;-91
2023/01/03 11:59:20;;;;;;;51.22;18.45;;;;;;;;;;6186888;23;20448;-92
2023/01/03 12:01:49;;;;;;;59.85;20.33;;;;;;;;;;6219763;23;20052;-92
2023/01/03 12:04:38;;;;;;;57.72;20.23;;;;;;;;;;6187661;23;20023;-91
2023/01/03 12:07:14;;;;;;;49.20;19.00;;;;;;;;;;6144192;23;20453;-91
2023/01/03 12:09:40;;;;;;;62.85;21.25;;;;;;;;;;6211448;23;20430;-92
2023/01/03 12:12:15;;;;;;;53.53;21.50;;;;;;;;;;6185093;23;20004;-91
2023/01/03 12:14:49;;;;;;;45.70;18.17;;;;;;;;;;6186635;23;20005;-91
2023/01/03 12:17:29;;;;;;;45.00;16.45;;;;;;;;;;6189490;23;20428;-92
2023/01/03 12:20:03;;;;;;;42.83;15.90;;;;;;;;;;6184446;23;20013;-91
2023/01/03 12:23:11;;;;;;;71.05;20.08;;;;;;;;;;6186235;22;20024;-91
2023/01/03 12:25:38;;;;;;;45.13;19.42;;;;;;;;;;6193273;23;20341;-91
2023/01/03 12:28:10;;;;;;;56.95;22.20;;;;;;;;;;6187758;23;20047;-91
2023/01/03 12:30:43;;;;;;;63.08;22.83;;;;;;;;;;6187738;23;20319;-91
2023/01/03 12:33:15;;;;;;;36.28;12.38;;;;;;;;;;6221106;23;20016;-92
2023/01/03 12:35:43;;;;;;;49.50;18.63;;;;;;;;;;6186725;23;20007;-91
2023/01/03 12:38:10;;;;;;;53.08;20.13;;;;;;;;;;6185791;23;20001;-91
2023/01/03 12:40:48;;;;;;;55.42;22.60;;;;;;;;;;6184668;23;20032;-92
2023/01/03 12:43:17;;;;;;;35.55;14.23;;;;;;;;;;6184599;23;20088;-92
2023/01/03 12:45:43;;;;;;;51.58;20.13;;;;;;;;;;6185228;23;20012;-91
2023/01/03 12:48:12;;;;;;;25.15;8.27;;;;;;;;;;6185650;23;20082;-92
2023/01/03 12:50:47;;;;;;;53.42;19.75;;;;;;;;;;6210953;23;20082;-92
2023/01/03 12:53:32;;;;;;;46.42;16.90;;;;;;;;;;6183956;23;20004;-91
2023/01/03 12:56:18;;;;;;;49.70;17.92;;;;;;;;;;6185755;23;20005;-91
2023/01/03 12:59:09;;;;;;;49.90;16.77;;;;;;;;;;6210185;23;20015;-92
2023/01/03 13:02:03;;;;;;;42.20;15.85;;;;;;;;;;6193465;23;20009;-92
2023/01/03 13:04:36;;;;;;;31.02;12.57;;;;;;;;;;6192734;23;20056;-91
2023/01/03 13:07:28;;;;;;;42.05;11.00;;;;;;;;;;6196042;23;20028;-92
2023/01/03 13:09:59;;;;;;;48.80;16.85;;;;;;;;;;6178507;23;20011;-91
2023/01/03 13:12:27;;;;;;;40.67;14.02;;;;;;;;;;6189873;23;20015;-91
2023/01/03 13:15:02;;;;;;;41.22;15.57;;;;;;;;;;6183164;23;20009;-92
2023/01/03 13:17:41;;;;;;;38.30;15.45;;;;;;;;;;6191569;23;20009;-92
2023/01/03 13:20:26;;;;;;;36.65;15.25;;;;;;;;;;6201117;23;20008;-91
2023/01/03 13:23:00;;;;;;;37.63;13.15;;;;;;;;;;6214336;22;20031;-92
2023/01/03 13:25:26;;;;;;;38.05;14.73;;;;;;;;;;6190582;23;20321;-91
2023/01/03 13:27:55;;;;;;;18.55;8.13;;;;;;;;;;6189311;23;20034;-92
2023/01/03 13:30:23;;;;;;;35.40;13.95;;;;;;;;;;6187328;23;20714;-92
2023/01/03 13:33:06;;;;;;;39.75;14.95;;;;;;;;;;6184054;23;20008;-91
2023/01/03 13:35:37;;;;;;;34.72;12.80;;;;;;;;;;6188552;23;20005;-92
2023/01/03 13:38:18;;;;;;;30.00;12.98;;;;;;;;;;6183626;23;20334;-91
2023/01/03 13:40:45;;;;;;;31.33;12.15;;;;;;;;;;6188755;23;20005;-92
2023/01/03 13:43:20;;;;;;;30.13;12.18;;;;;;;;;;6182953;23;20016;-92
2023/01/03 13:45:50;;;;;;;26.80;11.38;;;;;;;;;;6188188;23;20012;-92
2023/01/03 13:48:16;;;;;;;19.58;9.18;;;;;;;;;;6188600;23;20086;-92
2023/01/03 13:51:01;;;;;;;27.73;10.75;;;;;;;;;;6185043;23;20012;-92
2023/01/03 13:53:28;;;;;;;26.17;11.80;;;;;;;;;;6219575;23;20004;-92
2023/01/03 13:55:59;;;;;;;32.15;12.20;;;;;;;;;;6183709;23;20009;-92
2023/01/03 13:58:28;;;;;;;27.67;11.48;;;;;;;;;;6189521;23;20040;-91
2023/01/03 14:00:56;;;;;;;27.08;11.32;;;;;;;;;;6187759;23;20096;-91
2023/01/03 14:03:51;;;;;;;31.90;12.15;;;;;;;;;;6186854;23;20012;-92
2023/01/03 14:06:36;;;;;;;15.25;6.90;;;;;;;;;;6107940;23;20012;-93
2023/01/03 14:09:14;;;;;;;27.52;11.68;;;;;;;;;;6188458;23;20015;-92
2023/01/03 14:12:02;;;;;;;33.70;12.88;;;;;;;;;;6187226;23;20014;-92
2023/01/03 14:14:30;;;;;;;21.42;9.73;;;;;;;;;;6188137;23;20092;-92
2023/01/03 14:16:57;;;;;;;22.50;8.80;;;;;;;;;;6188568;23;20032;-91
2023/01/03 14:19:31;;;;;;;26.80;11.05;;;;;;;;;;6168948;23;20012;-92
2023/01/03 14:22:19;;;;;;;25.13;10.40;;;;;;;;;;6231824;22;20044;-92
2023/01/03 14:24:56;;;;;;;21.20;8.38;;;;;;;;;;6205871;23;20011;-91
2023/01/03 14:28:00;;;;;;;25.52;10.00;;;;;;;;;;6226736;23;20012;-92
2023/01/03 14:30:30;;;;;;;30.35;11.30;;;;;;;;;;6163735;23;20019;-92
2023/01/03 14:33:10;;;;;;;19.60;7.45;;;;;;;;;;6200569;23;20087;-92
2023/01/03 14:36:00;;;;;;;32.03;11.18;;;;;;;;;;6165064;23;20016;-91
2023/01/03 14:38:33;;;;;;;22.05;9.75;;;;;;;;;;6131348;23;20045;-92
2023/01/03 14:41:05;;;;;;;24.20;7.85;;;;;;;;;;6117384;23;20025;-92
2023/01/03 14:43:42;;;;;;;32.95;10.60;;;;;;;;;;6107832;23;20018;-91
2023/01/03 14:46:41;;;;;;;24.15;10.07;;;;;;;;;;6086115;23;20066;-93
2023/01/03 14:49:22;;;;;;;30.23;12.30;;;;;;;;;;6108226;23;20007;-92
2023/01/03 14:52:16;;;;;;;22.08;9.82;;;;;;;;;;6109840;23;20003;-93
2023/01/03 14:54:49;;;;;;;37.50;12.55;;;;;;;;;;6112087;23;20006;-92
2023/01/03 14:57:26;;;;;;;28.77;11.88;;;;;;;;;;6076638;23;20081;-92
2023/01/03 15:00:18;;;;;;;32.55;13.13;;;;;;;;;;6114203;23;20010;-93
2023/01/03 15:02:49;;;;;;;32.33;12.38;;;;;;;;;;6044604;23;20022;-92
2023/01/03 15:05:16;;;;;;;34.05;12.75;;;;;;;;;;6068885;23;20021;-92
2023/01/03 15:07:42;;;;;;;21.65;8.35;;;;;;;;;;6147416;23;20010;-92
2023/01/03 15:10:11;;;;;;;18.80;8.65;;;;;;;;;;6101255;23;20053;-92
2023/01/03 15:12:44;;;;;;;35.15;12.18;;;;;;;;;;6149471;23;20076;-92
2023/01/03 15:15:13;;;;;;;27.13;9.73;;;;;;;;;;6166843;23;20004;-93
2023/01/03 15:17:39;;;;;;;36.60;14.27;;;;;;;;;;6186994;23;20309;-92
2023/01/03 15:20:06;;;;;;;35.80;12.27;;;;;;;;;;6187054;23;20020;-90
2023/01/03 15:22:38;;;;;;;29.50;11.90;;;;;;;;;;6187496;22;20353;-91
2023/01/03 15:25:07;;;;;;;35.65;13.20;;;;;;;;;;6186736;23;20015;-91
2023/01/03 15:27:33;;;;;;;27.42;12.82;;;;;;;;;;6186543;23;20108;-91
2023/01/03 15:30:29;;;;;;;34.63;13.00;;;;;;;;;;6213125;23;20013;-92
2023/01/03 15:33:00;;;;;;;39.83;12.63;;;;;;;;;;6161431;23;20554;-93
2023/01/03 15:35:29;;;;;;;32.80;13.65;;;;;;;;;;6187842;23;20031;-92
2023/01/03 15:37:56;;;;;;;31.10;12.52;;;;;;;;;;6185750;23;20012;-92
2023/01/03 15:40:51;;;;;;;28.85;11.88;;;;;;;;;;6171395;23;20019;-93
2023/01/03 15:43:44;;;;;;;29.95;12.68;;;;;;;;;;6168390;23;20067;-92
2023/01/03 15:46:49;;;;;;;;;;;;;;;;;;;;;
2023/01/03 15:49:27;;;;;;;42.03;13.25;;;;;;;;;;6216032;23;20457;-91
2023/01/03 15:52:08;;;;;;;29.50;10.15;;;;;;;;;;6186950;23;20429;-91
2023/01/03 15:54:56;;;;;;;28.35;9.23;;;;;;;;;;6202453;23;20001;-92
2023/01/03 15:57:58;;;;;;;;;;;;;;;;;;;;;
2023/01/03 16:00:34;;;;;;;25.83;11.88;;;;;;;;;;6174485;23;20008;-91
2023/01/03 16:03:20;;;;;;;;;;;;;;;;;;6231686;23;20031;-91
2023/01/03 16:06:06;;;;;;;29.70;11.45;;;;;;;;;;6217360;23;19911;-93